Le Sueur, MN (56058)

2:48 PM CST on February 06, 2016 (GMT -0600)
The Cedars | | Change Station
CLOSE
Current Station
Personal Weather Station
Location: Le Sueur, MN
Elevation: 902 ft
Nearby Weather Stations
Active Advisory: Blizzard Watch

Elev 902 ft 44.43 °N, 93.89 °W | Updated 7 minutes ago

Partly Cloudy
Partly Cloudy
35.4 °F
Feels Like 35 °F
N
2.7
Wind Variable Wind from South

Today
High -- | Low -- °F
--% Chance of Precip.
Yesterday
High -- | Low -- °F
Precip. -- in
Pressure 29.97 in
Visibility 10.0 miles
Clouds Few 10000 ft
Windchill 35 °F
Dew Point 29 °F
Humidity 76%
Rainfall 0.02 in
Snow Depth Not available.
7:28 AM 5:31 PM
Waning Crescent, 4% visible
METAR KMKT 062035Z 19014G17KT 10SM FEW100 01/M03 A2997 RMK AO1
Pressure 29.97 in
Visibility 10.0 miles
Clouds Few 10000 ft
Windchill 35 °F
Dew Point 29 °F
Humidity 76%
Rainfall 0.02 in
Snow Depth Not available.
7:28 AM 5:31 PM
Waning Crescent, 4% visible
METAR KMKT 062035Z 19014G17KT 10SM FEW100 01/M03 A2997 RMK AO1

10-Day Weather Forecast

Almanac

Astronomy

Feb. 06, 2016 Rise Set
Actual Time
Civil Twilight
Nautical Twilight
Astronomical Twilight
Moon
Length of Visible Light
Length of Day
Tomorrow will be .
, % of the Moon is Illuminated

Today's Extremes

State Highs State Lows

Community

WunderPhotos

Upload Photos

1,891,046 photos uploaded!

WunderBlog® & News

Nearby

Air Quality

  Air Quality AQ Index Pollutant
Not available.

Snow Depth

Station Depth Elevation

Earthquake Activity

City Distance Mag. Time & Date
Minimum magnitude displayed is 2.5.

Coastal Water Temperatures

Place Temperature

Stations

Nearby Weather Stations

Station Location Temp. Windchill Dew Point Humidity Wind Precip. Elev Updated Type
                   

Watches & Warnings

Blizzard Watch
Issued: 10:46 AM CST Feb. 6, 2016 – National Weather Service

... Blizzard watch remains in effect from Sunday afternoon through
Monday morning...

* blizzard conditions are possible from Sunday afternoon through
Monday morning.

* Winds gusting as high as 40 to 50 mph could cause whiteout
conditions in blowing snow. Significant drifting of the snow
is likely.

* Total snow accumulations of up to 2 inches are possible.

* Travel could be very difficult or impossible... including
during the morning commute on Monday.

Precautionary/preparedness actions...

A blizzard watch means there is a potential for falling and
blowing snow with strong winds and extremely poor visibilities.
This can lead to whiteout conditions and make travel very
dangerous.